createdAt,value
2019-02-20T00:01:58.900Z,15.10
2019-02-20T00:04:34.273Z,15.00
2019-02-20T00:07:08.766Z,14.80
2019-02-20T00:09:44.103Z,15.00
2019-02-20T00:12:19.086Z,15.00
2019-02-20T00:14:54.119Z,14.80
2019-02-20T00:17:27.470Z,14.80
2019-02-20T00:20:01.572Z,14.50
2019-02-20T00:22:40.174Z,14.70
2019-02-20T00:25:10.428Z,15.00
2019-02-20T00:27:44.646Z,15.20
2019-02-20T00:30:19.249Z,15.30
2019-02-20T00:32:52.689Z,15.40
2019-02-20T00:35:27.645Z,15.30
2019-02-20T00:38:03.038Z,14.80
2019-02-20T00:40:38.011Z,14.90
2019-02-20T00:43:11.894Z,15.20
2019-02-20T00:46:14.268Z,15.30
2019-02-20T00:49:16.289Z,15.00
2019-02-20T00:52:07.707Z,14.90
2019-02-20T00:54:42.228Z,15.00
2019-02-20T00:57:16.444Z,15.00
2019-02-20T00:59:49.797Z,15.00
2019-02-20T01:02:25.044Z,15.00
2019-02-20T01:04:58.881Z,15.10
2019-02-20T01:07:33.521Z,15.10
2019-02-20T01:10:07.874Z,15.00
2019-02-20T01:12:41.612Z,14.80
2019-02-20T01:15:15.598Z,14.70
2019-02-20T01:17:50.046Z,14.40
2019-02-20T01:20:24.486Z,14.60
2019-02-20T01:23:00.147Z,14.60
2019-02-20T01:25:36.187Z,14.60
2019-02-20T01:28:10.954Z,14.80
2019-02-20T01:30:45.300Z,14.50
2019-02-20T01:33:21.335Z,14.50
2019-02-20T01:35:56.254Z,14.80
2019-02-20T01:38:30.097Z,14.90
2019-02-20T01:41:04.967Z,15.10
2019-02-20T01:43:40.357Z,14.90
2019-02-20T01:46:16.916Z,15.00
2019-02-20T01:48:51.384Z,15.00
2019-02-20T01:51:27.371Z,14.90
2019-02-20T01:54:02.584Z,14.70
2019-02-20T01:56:39.611Z,15.00
2019-02-20T01:59:14.735Z,15.30
2019-02-20T02:01:49.741Z,15.50
2019-02-20T02:04:23.840Z,15.90
2019-02-20T02:06:59.333Z,16.30
2019-02-20T02:09:33.668Z,16.00
2019-02-20T02:12:08.063Z,16.20
2019-02-20T02:14:41.923Z,16.30
2019-02-20T02:17:15.847Z,15.80
2019-02-20T02:19:50.174Z,16.00
2019-02-20T02:22:24.427Z,16.10
2019-02-20T02:24:58.670Z,16.10
2019-02-20T02:27:33.752Z,16.30
2019-02-20T02:30:08.508Z,16.20
2019-02-20T02:32:43.142Z,15.90
2019-02-20T02:35:18.066Z,15.50
2019-02-20T02:37:52.895Z,15.30
2019-02-20T02:40:27.262Z,15.10
2019-02-20T02:43:03.642Z,15.10
2019-02-20T02:45:38.474Z,15.10
2019-02-20T02:48:12.794Z,15.10
2019-02-20T02:50:48.237Z,15.40
2019-02-20T02:53:30.752Z,15.30
2019-02-20T02:56:01.291Z,15.20
2019-02-20T02:58:36.431Z,15.40
2019-02-20T03:01:11.470Z,15.50
2019-02-20T03:03:46.824Z,15.40
2019-02-20T03:06:21.615Z,15.60
2019-02-20T03:08:56.475Z,15.70
2019-02-20T03:11:30.644Z,16.00
2019-02-20T03:14:04.719Z,15.90
2019-02-20T03:16:40.048Z,15.90
2019-02-20T03:19:15.273Z,16.00
2019-02-20T03:21:50.189Z,15.90
2019-02-20T03:24:25.945Z,16.00
2019-02-20T03:27:00.760Z,16.10
2019-02-20T03:29:35.678Z,16.20
2019-02-20T03:32:10.827Z,16.00
2019-02-20T03:34:45.601Z,16.00
2019-02-20T03:37:20.161Z,15.70
2019-02-20T03:39:54.476Z,15.70
2019-02-20T03:42:28.870Z,16.00
2019-02-20T03:45:03.973Z,15.60
2019-02-20T03:47:38.984Z,15.70
2019-02-20T03:50:13.126Z,16.00
2019-02-20T03:52:47.418Z,16.30
2019-02-20T03:55:22.278Z,16.50
2019-02-20T03:57:56.692Z,16.60
2019-02-20T04:00:34.656Z,16.60
2019-02-20T04:03:09.882Z,16.60
2019-02-20T04:05:44.161Z,16.50
2019-02-20T04:08:18.703Z,16.50
2019-02-20T04:10:53.123Z,16.50
2019-02-20T04:13:27.505Z,16.50
2019-02-20T04:16:03.074Z,16.80
2019-02-20T04:18:36.890Z,16.90
2019-02-20T04:21:11.760Z,16.80
2019-02-20T04:23:46.312Z,16.50
2019-02-20T04:26:21.675Z,16.30
2019-02-20T04:28:55.918Z,16.20
2019-02-20T04:31:30.279Z,16.30
2019-02-20T04:34:04.931Z,16.00
2019-02-20T04:36:39.421Z,15.90
2019-02-20T04:39:15.009Z,15.90
2019-02-20T04:41:50.425Z,15.70
2019-02-20T04:44:25.303Z,15.60
2019-02-20T04:47:00.640Z,15.60
2019-02-20T04:49:35.965Z,15.40
2019-02-20T04:52:10.991Z,15.40
2019-02-20T04:54:46.473Z,15.40
2019-02-20T04:57:20.812Z,15.90
2019-02-20T04:59:55.832Z,16.30
2019-02-20T05:02:30.861Z,16.50
2019-02-20T05:05:05.833Z,16.10
2019-02-20T05:07:41.089Z,16.00
2019-02-20T05:10:15.862Z,15.50
2019-02-20T05:12:51.001Z,15.60
2019-02-20T05:15:25.289Z,15.50
2019-02-20T05:18:00.239Z,15.20
2019-02-20T05:20:36.019Z,15.50
2019-02-20T05:23:11.554Z,15.60
2019-02-20T05:25:46.309Z,16.00
2019-02-20T05:28:21.407Z,16.40
2019-02-20T05:30:56.447Z,16.60
2019-02-20T05:33:30.194Z,16.30
2019-02-20T05:36:05.069Z,16.20
2019-02-20T05:38:39.726Z,16.20
2019-02-20T05:41:14.264Z,16.10
2019-02-20T05:43:48.765Z,16.30
2019-02-20T05:46:24.166Z,16.60
2019-02-20T05:48:58.401Z,16.70
2019-02-20T05:51:32.700Z,16.50
2019-02-20T05:54:09.221Z,16.70
2019-02-20T05:56:48.115Z,16.60
2019-02-20T05:59:23.270Z,16.90
2019-02-20T06:02:00.649Z,16.80
2019-02-20T06:04:41.825Z,16.90
2019-02-20T06:07:26.076Z,17.00
2019-02-20T06:09:56.854Z,16.70
2019-02-20T06:12:34.011Z,16.60
2019-02-20T06:15:13.242Z,16.80
2019-02-20T06:17:48.720Z,16.60
2019-02-20T06:20:23.738Z,15.90
2019-02-20T06:22:57.620Z,15.70
2019-02-20T06:25:31.904Z,16.00
2019-02-20T06:28:07.500Z,16.00
2019-02-20T06:30:44.202Z,16.30
2019-02-20T06:33:20.366Z,16.60
2019-02-20T06:35:55.543Z,16.70
2019-02-20T06:38:30.695Z,16.70
2019-02-20T06:41:04.893Z,16.40
2019-02-20T06:43:39.576Z,16.20
2019-02-20T06:46:15.024Z,16.10
2019-02-20T06:48:52.286Z,16.20
2019-02-20T06:51:28.450Z,16.30
2019-02-20T06:54:04.819Z,16.20
2019-02-20T06:56:40.408Z,16.40
2019-02-20T06:59:16.033Z,16.60
2019-02-20T07:01:52.186Z,16.60
2019-02-20T07:04:28.023Z,15.90
2019-02-20T07:07:44.936Z,16.10
2019-02-20T07:11:24.038Z,16.50
2019-02-20T07:15:07.522Z,16.50
2019-02-20T07:18:45.135Z,16.60
2019-02-20T07:22:17.219Z,16.90
2019-02-20T07:25:42.823Z,16.40
2019-02-20T07:29:26.621Z,15.90
2019-02-20T07:32:02.444Z,16.20
2019-02-20T07:34:39.630Z,16.50
2019-02-20T07:37:14.649Z,16.60
2019-02-20T07:39:50.891Z,16.60
2019-02-20T07:42:26.071Z,15.90
2019-02-20T07:45:01.002Z,16.10
2019-02-20T07:47:35.825Z,15.90
2019-02-20T07:50:12.580Z,15.70
2019-02-20T07:52:47.449Z,15.40
2019-02-20T07:55:23.602Z,15.80
2019-02-20T07:57:59.614Z,15.70
2019-02-20T08:00:35.597Z,15.60
2019-02-20T08:03:09.867Z,15.70
2019-02-20T08:05:45.157Z,15.80
2019-02-20T08:08:19.514Z,15.60
2019-02-20T08:10:54.323Z,15.70
2019-02-20T08:13:39.047Z,15.30
2019-02-20T08:16:08.761Z,15.00
2019-02-20T08:18:43.056Z,14.50
2019-02-20T08:21:19.083Z,14.10
2019-02-20T08:23:55.312Z,14.00
2019-02-20T08:26:30.668Z,13.90
2019-02-20T08:29:07.186Z,14.10
2019-02-20T08:31:42.772Z,14.30
2019-02-20T08:34:18.839Z,14.70
2019-02-20T08:36:55.723Z,14.60
2019-02-20T08:39:31.886Z,14.30
2019-02-20T08:42:06.908Z,13.90
2019-02-20T08:44:40.711Z,14.00
2019-02-20T08:47:15.593Z,14.30
2019-02-20T08:49:51.023Z,13.90
2019-02-20T08:52:26.335Z,13.80
2019-02-20T08:55:01.311Z,13.90
2019-02-20T08:57:36.007Z,13.90
2019-02-20T09:00:13.261Z,14.00
2019-02-20T09:02:47.590Z,13.80
2019-02-20T09:05:23.982Z,13.50
2019-02-20T09:07:57.787Z,13.40
2019-02-20T09:10:33.210Z,13.70
2019-02-20T09:13:09.322Z,14.00
2019-02-20T09:15:44.311Z,14.20
2019-02-20T09:18:18.709Z,14.50
2019-02-20T09:20:54.599Z,14.90
2019-02-20T09:23:29.057Z,15.30
2019-02-20T09:26:05.465Z,15.20
2019-02-20T09:28:58.150Z,15.00
2019-02-20T09:31:33.835Z,15.10
2019-02-20T09:34:11.407Z,14.90
2019-02-20T09:36:50.274Z,14.40
2019-02-20T09:39:49.806Z,14.30
2019-02-20T09:42:25.474Z,14.80
2019-02-20T09:45:00.506Z,14.90
2019-02-20T09:47:35.866Z,14.70
2019-02-20T09:50:11.210Z,15.00
2019-02-20T09:52:51.889Z,15.80
2019-02-20T09:55:23.328Z,15.30
2019-02-20T09:57:59.168Z,15.60
2019-02-20T10:00:35.284Z,15.80
2019-02-20T10:03:09.913Z,15.40
2019-02-20T10:05:44.856Z,15.20
2019-02-20T10:08:19.429Z,15.80
2019-02-20T10:10:54.616Z,16.20
2019-02-20T10:13:29.555Z,15.60
2019-02-20T10:16:04.030Z,15.30
2019-02-20T10:18:38.834Z,15.50
2019-02-20T10:21:14.048Z,15.20
2019-02-20T10:23:49.998Z,15.30
2019-02-20T10:26:24.440Z,15.50
2019-02-20T10:28:58.398Z,15.20
2019-02-20T10:31:33.085Z,14.90
2019-02-20T10:34:06.316Z,15.10
2019-02-20T10:36:39.623Z,15.30
2019-02-20T10:39:12.851Z,15.20
2019-02-20T10:41:46.794Z,15.60
2019-02-20T10:44:23.882Z,15.40
2019-02-20T10:46:58.047Z,15.60
2019-02-20T10:49:32.137Z,15.80
2019-02-20T10:52:06.226Z,15.60
2019-02-20T10:54:39.090Z,16.30
2019-02-20T10:57:12.967Z,15.60
2019-02-20T10:59:46.510Z,15.60
2019-02-20T11:02:21.015Z,16.00
2019-02-20T11:04:55.396Z,16.80
2019-02-20T11:07:28.803Z,16.70
2019-02-20T11:10:02.870Z,16.40
2019-02-20T11:12:36.687Z,16.40
2019-02-20T11:15:09.263Z,16.70
2019-02-20T11:17:42.244Z,17.00
2019-02-20T11:20:15.419Z,17.30
2019-02-20T11:22:49.681Z,16.90
2019-02-20T11:25:22.979Z,16.80
2019-02-20T11:27:56.293Z,16.40
2019-02-20T11:30:28.629Z,16.70
2019-02-20T11:33:03.366Z,16.50
2019-02-20T11:35:37.137Z,16.60
2019-02-20T11:38:10.877Z,16.40
2019-02-20T11:40:44.574Z,16.80
2019-02-20T11:43:18.516Z,16.50
2019-02-20T11:45:52.271Z,16.70
2019-02-20T11:48:26.838Z,16.30
2019-02-20T11:51:01.097Z,16.40
2019-02-20T11:53:37.392Z,16.40
2019-02-20T11:56:12.325Z,15.70
2019-02-20T11:58:49.909Z,16.00
2019-02-20T12:01:24.615Z,16.20
2019-02-20T12:04:00.029Z,16.20
2019-02-20T12:06:33.911Z,16.60
2019-02-20T12:09:11.446Z,16.50
2019-02-20T12:11:47.114Z,16.70
2019-02-20T12:14:24.698Z,16.80
2019-02-20T12:16:59.113Z,16.50
2019-02-20T12:19:36.714Z,16.60
2019-02-20T12:22:11.084Z,16.80
2019-02-20T12:24:46.475Z,17.00
2019-02-20T12:27:21.386Z,16.20
2019-02-20T12:29:55.990Z,16.10
2019-02-20T12:32:32.399Z,16.30
2019-02-20T12:35:07.162Z,16.80
2019-02-20T12:37:43.372Z,16.00
2019-02-20T12:40:18.545Z,15.70
2019-02-20T12:42:53.679Z,15.60
2019-02-20T12:45:30.368Z,15.20
2019-02-20T12:48:05.928Z,15.40
2019-02-20T12:50:41.283Z,15.80
2019-02-20T12:53:16.835Z,16.50
2019-02-20T12:55:52.718Z,16.20
2019-02-20T12:58:27.271Z,16.10
2019-02-20T13:01:02.827Z,16.20
2019-02-20T13:03:39.171Z,16.70
2019-02-20T13:06:14.643Z,17.00
2019-02-20T13:08:49.955Z,17.00
2019-02-20T13:11:25.588Z,16.70
2019-02-20T13:14:00.579Z,16.10
2019-02-20T13:16:37.797Z,15.50
2019-02-20T13:19:11.661Z,15.30
2019-02-20T13:21:46.775Z,15.60
2019-02-20T13:24:22.416Z,15.40
2019-02-20T13:26:57.243Z,16.00
2019-02-20T13:29:31.913Z,15.70
2019-02-20T13:32:05.082Z,15.50
2019-02-20T13:34:39.448Z,15.70
2019-02-20T13:37:14.303Z,16.40
2019-02-20T13:39:48.487Z,17.00
2019-02-20T13:42:23.763Z,16.80
2019-02-20T13:44:59.320Z,16.30
2019-02-20T13:47:37.961Z,15.70
2019-02-20T13:50:21.556Z,15.60
2019-02-20T13:52:56.015Z,15.00
2019-02-20T13:55:34.446Z,14.60
2019-02-20T13:58:07.932Z,14.60
2019-02-20T14:00:43.378Z,15.00
2019-02-20T14:03:18.060Z,15.00
2019-02-20T14:05:52.611Z,14.90
2019-02-20T14:08:27.647Z,14.90
2019-02-20T14:11:02.509Z,14.80
2019-02-20T14:13:37.103Z,14.90
2019-02-20T14:16:12.503Z,15.00
2019-02-20T14:18:47.575Z,15.00
2019-02-20T14:21:23.561Z,15.30
2019-02-20T14:23:58.173Z,15.20
2019-02-20T14:26:33.085Z,15.10
2019-02-20T14:29:07.991Z,15.90
2019-02-20T14:31:46.062Z,15.80
2019-02-20T14:34:21.704Z,16.60
2019-02-20T14:36:56.312Z,16.50
2019-02-20T14:39:30.843Z,16.30
2019-02-20T14:42:08.069Z,15.70
2019-02-20T14:44:43.011Z,15.70
2019-02-20T14:47:17.987Z,16.10
2019-02-20T14:49:52.284Z,15.70
2019-02-20T14:52:26.783Z,16.30
2019-02-20T14:55:00.922Z,15.90
2019-02-20T14:57:35.823Z,16.30
2019-02-20T15:00:10.896Z,16.20
2019-02-20T15:02:45.305Z,16.60
2019-02-20T15:05:20.226Z,16.20
2019-02-20T15:07:54.637Z,15.60
2019-02-20T15:10:30.987Z,15.90
2019-02-20T15:13:07.789Z,16.10
2019-02-20T15:15:42.168Z,16.10
2019-02-20T15:18:17.204Z,15.70
2019-02-20T15:20:53.681Z,15.20
2019-02-20T15:23:29.001Z,15.30
2019-02-20T15:26:05.047Z,15.10
2019-02-20T15:28:38.519Z,15.40
2019-02-20T15:31:14.553Z,16.20
2019-02-20T15:33:48.621Z,16.20
2019-02-20T15:36:26.595Z,16.40
2019-02-20T15:39:03.104Z,16.30
2019-02-20T15:41:38.565Z,16.20
2019-02-20T15:44:13.921Z,16.30
2019-02-20T15:46:48.696Z,16.20
2019-02-20T15:49:23.168Z,16.30
2019-02-20T15:51:58.909Z,16.50
2019-02-20T15:54:34.468Z,16.90
2019-02-20T15:57:10.642Z,16.90
2019-02-20T15:59:45.002Z,16.50
2019-02-20T16:02:19.985Z,16.80
2019-02-20T16:04:56.489Z,16.70
2019-02-20T16:07:32.224Z,16.70
2019-02-20T16:10:10.625Z,16.50
2019-02-20T16:12:46.551Z,16.50
2019-02-20T16:15:20.963Z,17.00
2019-02-20T16:17:56.528Z,16.90
2019-02-20T16:20:30.744Z,16.70
2019-02-20T16:23:07.094Z,16.50
2019-02-20T16:25:44.941Z,16.60
2019-02-20T16:28:21.513Z,17.00
2019-02-20T16:30:58.359Z,16.70
2019-02-20T16:33:43.180Z,16.80
2019-02-20T16:36:17.659Z,17.20
2019-02-20T16:38:54.123Z,17.30
2019-02-20T16:41:30.151Z,17.80
2019-02-20T16:44:05.231Z,18.00
2019-02-20T16:46:40.453Z,18.30
2019-02-20T16:49:14.807Z,18.50
2019-02-20T16:51:53.359Z,18.50
2019-02-20T16:54:29.321Z,18.50
2019-02-20T16:57:04.173Z,18.40
2019-02-20T16:59:38.816Z,18.60
2019-02-20T17:02:13.829Z,18.70
2019-02-20T17:04:48.349Z,18.80
2019-02-20T17:07:24.245Z,18.60
2019-02-20T17:09:58.185Z,18.20
2019-02-20T17:12:33.740Z,18.00
2019-02-20T17:15:09.652Z,17.90
2019-02-20T17:17:45.543Z,17.50
2019-02-20T17:20:22.137Z,17.20
2019-02-20T17:22:56.088Z,17.00
2019-02-20T17:25:30.868Z,16.80
2019-02-20T17:28:06.252Z,16.50
2019-02-20T17:30:44.634Z,16.30
2019-02-20T17:33:19.570Z,16.30
2019-02-20T17:35:55.516Z,16.30
2019-02-20T17:38:30.423Z,16.20
2019-02-20T17:41:05.741Z,15.90
2019-02-20T17:43:43.499Z,15.80
2019-02-20T17:46:19.002Z,15.70
2019-02-20T17:48:53.875Z,15.70
2019-02-20T17:51:28.252Z,15.90
2019-02-20T17:54:03.322Z,16.20
2019-02-20T17:56:38.100Z,16.30
2019-02-20T17:59:21.596Z,16.30
2019-02-20T18:01:59.432Z,16.40
2019-02-20T18:04:36.063Z,16.60
2019-02-20T18:07:12.260Z,16.90
2019-02-20T18:09:47.783Z,17.10
2019-02-20T18:12:27.068Z,17.00
2019-02-20T18:15:22.733Z,16.70
2019-02-20T18:17:55.841Z,16.70
2019-02-20T18:20:29.944Z,17.40
2019-02-20T18:23:04.525Z,17.70
2019-02-20T18:25:39.923Z,17.80
2019-02-20T18:28:13.370Z,17.60
2019-02-20T18:30:56.689Z,17.60
2019-02-20T18:33:30.302Z,17.70
2019-02-20T18:36:03.163Z,17.60
2019-02-20T18:38:37.765Z,17.50
2019-02-20T18:41:10.112Z,17.40
2019-02-20T18:43:44.335Z,17.40
2019-02-20T18:46:17.863Z,17.40
2019-02-20T18:48:51.041Z,17.60
2019-02-20T18:51:24.370Z,17.50
2019-02-20T18:53:58.914Z,17.50
2019-02-20T18:56:34.177Z,17.10
2019-02-20T18:59:09.028Z,17.10
2019-02-20T19:01:42.360Z,17.40
2019-02-20T19:04:15.397Z,17.60
2019-02-20T19:09:47.518Z,17.70
2019-02-20T19:13:33.128Z,17.80
2019-02-20T19:17:17.263Z,17.70
2019-02-20T19:20:56.055Z,17.30
2019-02-20T19:24:36.942Z,17.10
2019-02-20T19:27:47.841Z,17.00
2019-02-20T19:31:09.684Z,17.10
2019-02-20T19:34:40.383Z,17.00
2019-02-20T19:38:29.565Z,16.80
2019-02-20T19:42:20.922Z,16.90
2019-02-20T19:46:00.449Z,17.20
2019-02-20T19:49:34.685Z,17.50
2019-02-20T19:52:45.146Z,17.90
2019-02-20T19:55:55.712Z,17.90
2019-02-20T19:59:23.251Z,18.10
2019-02-20T20:02:58.944Z,18.20
2019-02-20T20:06:28.514Z,18.50
2019-02-20T20:09:39.650Z,18.40
2019-02-20T20:13:03.209Z,18.10
2019-02-20T20:16:28.046Z,17.80
2019-02-20T20:20:00.427Z,17.70
2019-02-20T20:23:27.453Z,17.60
2019-02-20T20:26:57.549Z,17.50
2019-02-20T20:30:32.039Z,17.30
2019-02-20T20:33:57.734Z,17.30
2019-02-20T20:37:19.466Z,17.50
2019-02-20T20:40:50.910Z,17.70
2019-02-20T20:44:28.293Z,17.90
2019-02-20T20:47:58.235Z,18.20
2019-02-20T20:51:19.246Z,18.60
2019-02-20T20:54:14.259Z,18.50
2019-02-20T20:57:40.518Z,18.00
2019-02-20T21:01:02.712Z,17.90
2019-02-20T21:03:38.117Z,17.90
2019-02-20T21:07:00.410Z,17.90
2019-02-20T21:10:46.512Z,18.00
2019-02-20T21:14:22.747Z,17.70
2019-02-20T21:18:07.967Z,17.40
2019-02-20T21:21:30.814Z,17.30
2019-02-20T21:25:17.146Z,16.90
2019-02-20T21:28:56.576Z,16.80
2019-02-20T21:32:10.890Z,16.80
2019-02-20T21:35:31.293Z,16.70
2019-02-20T21:39:07.235Z,16.50
2019-02-20T21:42:20.167Z,16.40
2019-02-20T21:45:15.686Z,16.60
2019-02-20T21:48:37.041Z,16.70
2019-02-20T21:52:15.433Z,16.80
2019-02-20T21:55:49.235Z,16.80
2019-02-20T21:59:38.689Z,16.90
2019-02-20T22:03:00.459Z,16.80
2019-02-20T22:05:54.749Z,16.70
2019-02-20T22:09:12.058Z,16.60
2019-02-20T22:12:31.043Z,16.80
2019-02-20T22:16:08.689Z,16.80
2019-02-20T22:19:39.820Z,16.80
2019-02-20T22:22:56.101Z,16.80
2019-02-20T22:26:25.005Z,16.50
2019-02-20T22:30:01.238Z,16.70
2019-02-20T22:33:27.919Z,16.60
2019-02-20T22:37:02.492Z,16.30
2019-02-20T22:40:23.741Z,16.40
2019-02-20T22:44:18.681Z,16.80
2019-02-20T22:47:57.130Z,16.60
2019-02-20T22:51:36.786Z,16.70
2019-02-20T22:55:15.644Z,16.60
2019-02-20T22:58:53.991Z,16.60
2019-02-20T23:01:59.374Z,16.60
2019-02-20T23:05:06.855Z,16.20
2019-02-20T23:08:04.195Z,16.40
2019-02-20T23:11:42.684Z,16.40
2019-02-20T23:15:04.044Z,16.40
2019-02-20T23:17:38.329Z,16.30
2019-02-20T23:20:13.648Z,16.10
2019-02-20T23:22:47.887Z,16.10
2019-02-20T23:25:22.044Z,16.20
2019-02-20T23:27:57.081Z,16.20
2019-02-20T23:30:32.065Z,16.30
2019-02-20T23:33:07.256Z,16.30
2019-02-20T23:35:42.187Z,16.40
2019-02-20T23:38:17.497Z,16.30
2019-02-20T23:40:53.370Z,16.40
2019-02-20T23:43:27.894Z,16.40
2019-02-20T23:46:02.859Z,16.50
2019-02-20T23:48:37.246Z,16.30
2019-02-20T23:51:11.672Z,16.40
2019-02-20T23:53:47.898Z,16.50
2019-02-20T23:56:22.340Z,16.70
2019-02-20T23:58:56.721Z,17.10
